Time;durP1;ratioP1;P1;durP2;ratioP2;P2;SDS_P1;SDS_P2;PMS_P1;PMS_P2;Temp;Humidity;BMP_temperature;BMP_pressure;BME280_temperature;BME280_humidity;BME280_pressure;Samples;Min_cycle;Max_cycle;Signal;HPM_P1;HPM_P2
2022/01/14 00:02:20;;;;;;;22.40;16.70;;;;;;;28.16;59.31;101391.59;5089475;27;70097;-37
2022/01/14 00:04:50;;;;;;;19.83;16.35;;;;;;;28.23;58.82;101391.69;5085736;27;66078;-36
2022/01/14 00:07:21;;;;;;;21.63;16.35;;;;;;;28.26;58.85;101402.09;5081838;27;70325;-37
2022/01/14 00:09:51;;;;;;;18.15;16.08;;;;;;;28.29;58.96;101407.09;5085999;27;66625;-36
2022/01/14 00:12:26;;;;;;;34.60;18.73;;;;;;;28.32;59.33;101411.28;5086467;27;70675;-37
2022/01/14 00:15:01;;;;;;;39.47;24.08;;;;;;;28.35;59.15;101400.94;5057688;27;66652;-38
2022/01/14 00:17:32;;;;;;;45.88;24.92;;;;;;;28.39;59.24;101404.94;5071606;27;70229;-37
2022/01/14 00:20:02;;;;;;;54.70;28.95;;;;;;;28.43;60.00;101411.63;5091744;27;66458;-36
2022/01/14 00:22:32;;;;;;;52.83;29.45;;;;;;;28.39;59.65;101407.63;5087741;27;70854;-36
2022/01/14 00:33:16;;;;;;;92.68;39.53;;;;;;;28.40;58.51;101420.09;5090783;27;70560;-38
2022/01/14 00:35:46;;;;;;;70.45;37.78;;;;;;;28.35;57.83;101416.28;5095437;27;66593;-37
2022/01/14 00:38:17;;;;;;;86.63;39.70;;;;;;;28.32;58.39;101417.50;5093866;27;70081;-37
2022/01/14 00:40:47;;;;;;;72.95;35.50;;;;;;;28.27;58.90;101409.13;5089565;27;66604;-36
2022/01/14 00:43:18;;;;;;;57.90;30.23;;;;;;;28.36;59.08;101413.41;5088521;27;69591;-36
2022/01/14 00:45:50;;;;;;;62.92;30.77;;;;;;;28.38;59.41;101422.13;5092399;27;66283;-35
2022/01/14 00:48:21;;;;;;;48.58;29.27;;;;;;;28.41;59.37;101427.16;5093375;27;70165;-36
2022/01/14 00:50:51;;;;;;;46.42;26.95;;;;;;;28.46;58.86;101432.84;5089126;27;66528;-35
2022/01/14 00:53:21;;;;;;;39.20;26.48;;;;;;;28.50;59.31;101431.44;5087578;27;69295;-37
2022/01/14 00:56:05;;;;;;;39.13;26.35;;;;;;;28.55;58.95;101421.94;5096648;27;65589;-36
2022/01/14 01:01:24;;;;;;;36.53;25.10;;;;;;;28.61;59.05;101421.16;5088693;27;66583;-35
2022/01/14 01:03:54;;;;;;;39.60;25.77;;;;;;;28.65;58.79;101425.16;5090831;27;70138;-35
2022/01/14 01:06:25;;;;;;;37.55;24.70;;;;;;;28.67;58.49;101426.66;5092765;27;66044;-35
2022/01/14 01:08:56;;;;;;;33.47;25.63;;;;;;;28.69;58.38;101424.56;5093889;27;69330;-36
2022/01/14 01:11:34;;;;;;;39.20;26.13;;;;;;;28.70;58.07;101425.44;5092145;27;66203;-35
2022/01/14 01:14:12;;;;;;;34.70;24.73;;;;;;;28.74;58.15;101432.09;5099149;27;69596;-37
2022/01/14 01:16:42;;;;;;;41.97;26.50;;;;;;;28.78;58.33;101438.81;5093148;27;65856;-36
2022/01/14 01:19:13;;;;;;;34.33;24.98;;;;;;;28.76;58.08;101435.44;5090710;27;69579;-35
2022/01/14 01:21:43;;;;;;;31.83;23.92;;;;;;;28.81;58.30;101433.00;5093322;27;65156;-36
2022/01/14 01:24:15;;;;;;;29.30;24.13;;;;;;;28.78;58.45;101428.00;5090476;27;69629;-36
2022/01/14 01:26:45;;;;;;;32.33;25.45;;;;;;;28.84;58.42;101438.03;5090269;27;66648;-35
2022/01/14 01:31:49;;;;;;;38.20;24.90;;;;;;;28.89;58.13;101440.97;5086785;27;66116;-36
2022/01/14 01:34:22;;;;;;;32.92;23.60;;;;;;;28.89;58.21;101440.97;5097727;27;69468;-35
2022/01/14 01:36:56;;;;;;;29.75;24.63;;;;;;;28.87;58.00;101434.94;5090900;27;65928;-35
2022/01/14 01:39:30;;;;;;;33.90;24.58;;;;;;;28.81;57.59;101424.91;5084951;27;70146;-35
2022/01/14 01:42:06;;;;;;;28.83;23.48;;;;;;;28.77;57.87;101420.06;5088580;27;65565;-34
2022/01/14 01:44:39;;;;;;;35.67;23.58;;;;;;;28.99;57.88;101456.00;5082090;27;70161;-36
2022/01/14 01:47:09;;;;;;;30.98;22.73;;;;;;;29.00;58.06;101463.06;5085379;27;65816;-35
2022/01/14 01:49:40;;;;;;;32.80;22.98;;;;;;;29.02;57.59;101466.44;5083790;27;70115;-35
2022/01/14 01:52:10;;;;;;;28.20;22.80;;;;;;;28.99;57.93;101459.53;5088356;27;66005;-37
2022/01/14 01:54:40;;;;;;;33.97;23.42;;;;;;;29.05;57.80;101466.91;5086747;27;70363;-36
2022/01/14 01:57:11;;;;;;;27.40;22.70;;;;;;;29.06;57.59;101467.72;5087230;27;66285;-36
2022/01/14 01:59:41;;;;;;;27.13;23.10;;;;;;;28.98;57.39;101454.34;5086126;27;70000;-37
2022/01/14 02:02:11;;;;;;;28.77;22.52;;;;;;;29.11;57.57;101473.38;5088101;27;65557;-35
2022/01/14 02:04:42;;;;;;;26.10;22.20;;;;;;;29.11;57.80;101473.38;5083480;27;69917;-35
2022/01/14 02:07:13;;;;;;;28.42;23.10;;;;;;;29.12;57.67;101477.78;5081079;27;66096;-38
2022/01/14 02:09:48;;;;;;;26.05;21.77;;;;;;;29.13;57.69;101479.44;5086917;27;70448;-37
2022/01/14 02:12:19;;;;;;;24.42;21.63;;;;;;;29.15;57.39;101475.53;5091545;27;66031;-36
2022/01/14 02:17:33;;;;;;;26.40;21.45;;;;;;;29.19;57.61;101473.25;5092145;27;66283;-36
2022/01/14 02:23:02;;;;;;;27.38;21.65;;;;;;;29.22;57.01;101480.13;5093468;27;65516;-36
2022/01/14 02:25:33;;;;;;;30.13;22.05;;;;;;;29.23;57.08;101463.75;5079864;27;70263;-36
2022/01/14 02:28:10;;;;;;;25.23;22.17;;;;;;;29.27;57.04;101475.81;5089766;27;65486;-37
2022/01/14 02:30:43;;;;;;;29.60;22.45;;;;;;;29.25;57.55;101472.47;5086294;27;69228;-37
2022/01/14 02:33:15;;;;;;;26.98;23.25;;;;;;;29.14;57.29;101454.09;5091160;27;65486;-36
2022/01/14 02:35:46;;;;;;;;;;;;;;;28.99;57.54;101488.44;5087119;27;69184;-36
2022/01/14 02:38:17;;;;;;;25.25;21.50;;;;;;;29.28;56.90;101488.31;5091065;27;65612;-36
2022/01/14 02:40:48;;;;;;;26.45;22.60;;;;;;;29.32;56.77;101495.00;5087027;27;70445;-37
2022/01/14 02:43:18;;;;;;;30.27;22.75;;;;;;;29.33;57.25;101493.94;5085281;27;66124;-35
2022/01/14 02:45:54;;;;;;;24.83;20.55;;;;;;;29.29;56.60;101468.38;5091058;27;70215;-35
2022/01/14 02:48:27;;;;;;;27.48;21.63;;;;;;;29.21;56.83;101441.47;5089121;27;66084;-37
2022/01/14 02:51:09;;;;;;;31.55;22.38;;;;;;;29.41;56.66;101465.94;5086889;27;69971;-37
2022/01/14 02:56:19;;;;;;;25.25;21.70;;;;;;;29.42;56.45;101466.78;5089458;27;69156;-37
2022/01/14 02:58:51;;;;;;;29.15;21.98;;;;;;;29.45;56.45;101471.78;5093410;27;65739;-38
2022/01/14 03:01:25;;;;;;;29.90;21.50;;;;;;;29.47;56.57;101475.16;5087458;27;69737;-36
2022/01/14 03:03:57;;;;;;;30.42;21.20;;;;;;;29.36;56.64;101447.66;5100938;27;66416;-37
2022/01/14 03:06:29;;;;;;;38.38;23.45;;;;;;;29.48;56.61;101466.84;5089078;27;69892;-37
2022/01/14 03:09:00;;;;;;;27.17;21.80;;;;;;;29.53;56.74;101464.41;5086552;27;66379;-38
2022/01/14 03:11:48;;;;;;;25.23;22.40;;;;;;;29.50;56.35;101464.75;5081877;27;70070;-36
2022/01/14 03:14:23;;;;;;;26.33;21.30;;;;;;;29.58;56.47;101466.50;5093636;27;66557;-37
2022/01/14 03:16:59;;;;;;;31.05;22.65;;;;;;;29.45;56.13;101431.25;5083220;27;71013;-37
2022/01/14 03:19:30;;;;;;;23.58;21.13;;;;;;;29.61;56.36;101450.72;5093393;27;66229;-35
2022/01/14 03:22:18;;;;;;;27.95;21.08;;;;;;;29.64;56.39;101444.09;5080149;27;70256;-35
2022/01/14 03:27:20;;;;;;;31.05;22.88;;;;;;;29.66;55.86;101447.44;5082975;27;69897;-35
2022/01/14 03:30:29;;;;;;;29.20;22.38;;;;;;;29.60;55.64;101450.91;5085491;27;65805;-35
2022/01/14 03:32:59;;;;;;;25.05;21.70;;;;;;;29.71;55.74;101449.56;5086576;27;69143;-35
2022/01/14 03:35:29;;;;;;;28.25;22.35;;;;;;;29.74;56.16;101450.00;5089758;27;66181;-36
2022/01/14 03:37:59;;;;;;;26.48;21.08;;;;;;;29.76;55.96;101450.63;5091964;27;70499;-37
2022/01/14 03:40:29;;;;;;;22.50;20.23;;;;;;;29.79;55.62;101442.13;5083953;27;66821;-35
2022/01/14 03:43:00;;;;;;;27.63;22.25;;;;;;;29.76;55.58;101436.28;5081826;27;69257;-35
2022/01/14 03:45:43;;;;;;;27.30;21.77;;;;;;;29.78;55.34;101435.06;5067936;28;66306;-36
2022/01/14 03:48:34;;;;;;;27.90;22.98;;;;;;;29.81;55.78;101429.25;5083406;27;69465;-35
2022/01/14 03:51:32;;;;;;;26.73;22.08;;;;;;;29.78;55.89;101416.13;5086120;27;65507;-35
2022/01/14 03:54:03;;;;;;;28.42;23.02;;;;;;;29.84;55.65;101431.53;5091976;27;70465;-37
2022/01/14 03:56:33;;;;;;;29.52;21.88;;;;;;;29.91;55.63;101433.44;5090096;27;66681;-36
2022/01/14 03:59:04;;;;;;;27.85;21.98;;;;;;;29.94;55.02;101425.75;5084847;27;70385;-37
2022/01/14 04:01:34;;;;;;;27.90;21.40;;;;;;;29.96;55.46;101425.56;5091221;27;66202;-35
2022/01/14 04:04:05;;;;;;;27.73;22.70;;;;;;;29.96;55.20;101420.16;5086334;27;69668;-35
2022/01/14 04:06:50;;;;;;;31.80;21.63;;;;;;;30.02;54.73;101424.75;5079914;27;65737;-37
2022/01/14 04:09:20;;;;;;;27.38;21.75;;;;;;;29.98;54.79;101413.50;5086750;27;70525;-35
2022/01/14 04:11:51;;;;;;;30.42;22.10;;;;;;;30.06;55.23;101409.78;5084444;27;65386;-35
2022/01/14 04:16:57;;;;;;;29.80;22.35;;;;;;;30.11;54.49;101401.88;5088090;27;65120;-35
2022/01/14 04:19:28;;;;;;;24.13;21.00;;;;;;;30.13;54.58;101393.56;5089278;27;69124;-35
2022/01/14 04:21:58;;;;;;;26.45;22.48;;;;;;;30.13;54.50;101399.00;5082934;27;65449;-35
2022/01/14 04:24:29;;;;;;;28.15;21.02;;;;;;;30.16;54.55;101388.59;5089359;27;70852;-36
2022/01/14 04:26:59;;;;;;;31.98;22.35;;;;;;;30.09;54.17;101366.09;5088784;27;66054;-36
2022/01/14 04:29:29;;;;;;;23.98;21.33;;;;;;;30.20;54.49;101383.59;5081624;27;70131;-35
2022/01/14 04:32:00;;;;;;;27.23;20.92;;;;;;;30.23;54.11;101377.84;5082288;27;66987;-36
2022/01/14 04:34:31;;;;;;;27.70;21.05;;;;;;;30.23;54.06;101378.66;5082293;27;69424;-37
2022/01/14 04:37:01;;;;;;;23.67;20.58;;;;;;;30.27;54.46;101385.31;5083030;27;64725;-35
2022/01/14 04:39:31;;;;;;;32.08;21.42;;;;;;;30.28;54.11;101370.78;5093420;27;70218;-36
2022/01/14 04:42:02;;;;;;;32.47;20.48;;;;;;;30.30;54.45;101364.31;5088000;27;65384;-36
2022/01/14 04:44:33;;;;;;;25.55;20.88;;;;;;;30.31;54.15;101357.84;5080952;27;70260;-35
2022/01/14 04:47:15;;;;;;;24.60;20.63;;;;;;;30.35;54.17;101354.53;5084019;27;65652;-37
2022/01/14 04:49:45;;;;;;;30.45;20.60;;;;;;;30.37;54.11;101351.59;5083621;27;70137;-36
2022/01/14 04:52:16;;;;;;;22.05;19.35;;;;;;;30.38;53.99;101348.69;5089485;27;66335;-36
2022/01/14 04:54:47;;;;;;;29.27;21.15;;;;;;;30.42;54.42;101343.69;5088298;27;70629;-35
2022/01/14 04:57:17;;;;;;;23.83;19.92;;;;;;;30.45;54.20;101337.88;5087058;27;65825;-35
2022/01/14 04:59:48;;;;;;;24.02;19.65;;;;;;;30.42;54.36;101324.75;5081588;27;70108;-36
2022/01/14 05:02:18;;;;;;;24.87;19.23;;;;;;;30.47;54.06;101330.38;5089752;27;66292;-36
2022/01/14 05:04:49;;;;;;;22.15;19.83;;;;;;;30.48;53.76;101322.06;5085186;27;69592;-36
2022/01/14 05:07:24;;;;;;;24.80;19.40;;;;;;;30.53;53.94;101323.31;5086281;27;66106;-36
2022/01/14 05:10:16;;;;;;;23.83;18.33;;;;;;;30.56;54.07;101312.06;5088771;27;70868;-36
2022/01/14 05:12:46;;;;;;;24.20;19.98;;;;;;;30.55;54.34;101300.41;5092420;27;66399;-36
2022/01/14 05:15:18;;;;;;;24.65;19.30;;;;;;;30.60;54.01;101300.63;5088972;27;69235;-36
2022/01/14 05:17:49;;;;;;;26.73;19.05;;;;;;;30.59;53.93;101298.97;5090627;27;66064;-36
2022/01/14 05:20:20;;;;;;;25.33;18.00;;;;;;;30.61;54.05;101294.16;5084757;27;68765;-35
2022/01/14 05:22:51;;;;;;;28.58;19.17;;;;;;;30.64;53.64;101291.03;5088937;27;66042;-36
2022/01/14 05:25:21;;;;;;;21.13;18.77;;;;;;;30.65;54.20;101284.59;5088649;27;70810;-36
2022/01/14 05:27:51;;;;;;;24.15;18.55;;;;;;;30.68;53.99;101273.34;5095058;27;66151;-36
2022/01/14 05:30:22;;;;;;;24.13;19.23;;;;;;;30.67;54.03;101268.97;5091135;27;69261;-38
2022/01/14 05:32:53;;;;;;;23.27;18.17;;;;;;;30.69;53.73;101264.16;5085520;27;66526;-36
2022/01/14 05:35:27;;;;;;;31.85;19.60;;;;;;;30.71;53.66;101262.06;5082616;27;69083;-36
2022/01/14 05:37:57;;;;;;;21.67;19.05;;;;;;;30.72;53.49;101255.59;5089879;27;65779;-36
2022/01/14 05:40:28;;;;;;;27.02;18.38;;;;;;;30.74;54.06;101247.28;5087173;27;70638;-36
2022/01/14 05:42:59;;;;;;;25.50;18.33;;;;;;;30.72;53.95;101236.66;5084989;27;65387;-37
2022/01/14 05:45:29;;;;;;;20.00;17.70;;;;;;;30.77;53.91;101232.50;5090832;27;69147;-37
2022/01/14 05:47:59;;;;;;;21.63;18.08;;;;;;;30.77;53.58;101222.47;5087034;27;66029;-36
2022/01/14 05:50:30;;;;;;;18.70;17.00;;;;;;;30.79;53.54;101225.00;5094432;27;69259;-37
2022/01/14 05:53:00;;;;;;;20.13;18.08;;;;;;;30.81;53.55;101221.03;5087982;27;66843;-36
2022/01/14 05:55:30;;;;;;;22.00;18.25;;;;;;;30.83;53.54;101212.72;5087978;27;69593;-36
2022/01/14 05:58:00;;;;;;;19.75;17.65;;;;;;;30.83;53.18;101210.00;5082996;27;65671;-35
2022/01/14 06:00:30;;;;;;;22.08;18.25;;;;;;;30.82;53.48;101190.22;5091949;27;70604;-36
2022/01/14 06:03:01;;;;;;;24.13;17.30;;;;;;;30.86;53.54;101190.63;5093990;27;67255;-37
2022/01/14 06:05:35;;;;;;;19.65;16.75;;;;;;;30.86;53.05;101182.50;5084211;27;70059;-36
2022/01/14 06:08:05;;;;;;;20.35;17.80;;;;;;;30.88;53.67;101185.81;5085202;27;66090;-35
2022/01/14 06:10:36;;;;;;;18.63;16.50;;;;;;;30.88;53.66;101172.28;5090299;27;70460;-36
2022/01/14 06:13:07;;;;;;;19.25;17.23;;;;;;;30.89;53.03;101171.22;5083403;27;66269;-35
2022/01/14 06:15:37;;;;;;;21.52;17.42;;;;;;;30.84;53.54;101157.50;5082491;27;70414;-36
2022/01/14 06:18:07;;;;;;;18.55;16.60;;;;;;;30.89;53.13;101155.81;5089008;27;66042;-36
2022/01/14 06:20:37;;;;;;;18.67;16.88;;;;;;;30.91;53.48;101147.47;5086063;27;69897;-36
2022/01/14 06:23:07;;;;;;;23.38;16.73;;;;;;;30.93;52.92;101145.38;5086918;27;65700;-35
2022/01/14 06:25:38;;;;;;;17.35;15.57;;;;;;;30.84;53.41;101125.00;5090535;27;69997;-35
2022/01/14 06:28:08;;;;;;;27.90;17.45;;;;;;;30.94;53.43;101119.97;5090014;27;65255;-36
2022/01/14 06:30:38;;;;;;;20.48;16.75;;;;;;;30.96;52.90;101123.28;5081497;27;70531;-35
2022/01/14 06:33:09;;;;;;;18.77;16.58;;;;;;;30.97;53.27;101119.53;5088611;27;65749;-35
2022/01/14 06:35:39;;;;;;;17.50;15.77;;;;;;;30.97;52.84;101119.53;5088252;27;70362;-37
2022/01/14 06:38:11;;;;;;;18.20;16.25;;;;;;;30.99;53.15;101117.44;5085685;27;66981;-36
2022/01/14 06:40:41;;;;;;;17.92;16.13;;;;;;;30.99;52.91;101106.59;5092677;27;70407;-36
2022/01/14 06:43:11;;;;;;;18.02;16.25;;;;;;;31.01;52.76;101104.50;5080439;27;65627;-36
2022/01/14 06:45:42;;;;;;;17.00;15.35;;;;;;;31.01;52.93;101092.81;5075221;27;69550;-36
2022/01/14 06:48:12;;;;;;;17.77;15.93;;;;;;;31.03;52.87;101091.56;5082082;27;66327;-36
2022/01/14 06:50:42;;;;;;;16.73;15.23;;;;;;;31.02;53.07;101089.91;5088587;27;69972;-36
2022/01/14 06:53:13;;;;;;;17.17;15.55;;;;;;;31.05;52.81;101088.66;5088404;27;66262;-36
2022/01/14 06:55:44;;;;;;;16.23;14.73;;;;;;;31.06;52.85;101085.69;5092476;27;71172;-35
2022/01/14 06:58:14;;;;;;;19.40;15.93;;;;;;;31.07;52.55;101084.69;5086393;27;66310;-36
2022/01/14 07:00:44;;;;;;;16.20;14.70;;;;;;;31.08;52.97;101086.31;5087362;27;70512;-36
2022/01/14 07:03:14;;;;;;;16.45;14.90;;;;;;;31.08;53.07;101072.78;5085986;27;66375;-36
2022/01/14 07:05:45;;;;;;;17.35;15.63;;;;;;;31.11;52.96;101066.91;5081095;27;70158;-36
2022/01/14 07:08:15;;;;;;;16.63;15.00;;;;;;;31.12;52.86;101073.16;5094546;27;66048;-36
2022/01/14 07:10:45;;;;;;;19.17;15.10;;;;;;;31.13;53.00;101069.44;5087651;27;70023;-36
2022/01/14 07:13:15;;;;;;;22.25;14.73;;;;;;;31.14;52.44;101061.06;5085908;27;66393;-36
2022/01/14 07:15:46;;;;;;;17.42;15.55;;;;;;;31.14;52.63;101061.06;5089105;27;69713;-36
2022/01/14 07:18:16;;;;;;;16.20;14.68;;;;;;;31.19;52.49;101059.59;5082717;27;66648;-36
2022/01/14 07:20:46;;;;;;;15.90;14.48;;;;;;;31.20;52.80;101061.25;5083959;27;69222;-36
2022/01/14 07:23:17;;;;;;;16.58;14.90;;;;;;;31.21;52.73;101049.38;5081805;27;66552;-37
2022/01/14 07:25:47;;;;;;;16.35;14.65;;;;;;;31.21;52.90;101050.19;5092820;27;69614;-37
2022/01/14 07:28:17;;;;;;;15.15;13.88;;;;;;;31.24;52.23;101059.78;5088164;27;65629;-38
2022/01/14 07:30:47;;;;;;;17.58;14.38;;;;;;;31.25;52.25;101039.75;5086328;27;70440;-36
2022/01/14 07:33:18;;;;;;;14.77;13.48;;;;;;;31.27;52.83;101048.50;5091597;27;65651;-36
2022/01/14 07:35:49;;;;;;;15.65;13.88;;;;;;;31.15;52.71;101019.38;5083340;27;70281;-36
2022/01/14 07:38:19;;;;;;;16.90;13.50;;;;;;;31.30;52.06;101042.63;5086190;27;66176;-36
2022/01/14 07:40:50;;;;;;;15.80;14.40;;;;;;;31.31;52.30;101033.44;5088234;27;70136;-35
2022/01/14 07:43:21;;;;;;;15.25;13.85;;;;;;;31.33;52.29;101034.88;5083446;27;66162;-35
2022/01/14 07:45:51;;;;;;;15.00;13.68;;;;;;;31.33;52.16;101031.34;5090078;27;69898;-35
2022/01/14 07:48:22;;;;;;;14.90;13.50;;;;;;;31.39;52.29;101031.31;5094509;27;66175;-35
2022/01/14 07:50:52;;;;;;;15.00;13.60;;;;;;;31.40;51.98;101032.19;5066941;27;70545;-35
2022/01/14 07:53:24;;;;;;;14.57;13.20;;;;;;;31.43;52.15;101034.44;5085774;27;66434;-36
2022/01/14 07:55:54;;;;;;;14.60;13.23;;;;;;;31.45;52.17;101029.59;5085269;27;70155;-36
2022/01/14 07:58:25;;;;;;;15.27;13.73;;;;;;;31.43;51.97;101020.88;5085018;27;65930;-35
2022/01/14 08:00:55;;;;;;;13.63;12.43;;;;;;;31.48;51.97;101025.63;5085561;27;70171;-36
2022/01/14 08:03:25;;;;;;;13.32;12.32;;;;;;;31.52;51.89;101032.28;5089060;27;65900;-36
2022/01/14 08:05:57;;;;;;;14.48;13.02;;;;;;;31.53;52.03;101023.91;5092472;27;70472;-36
2022/01/14 08:08:31;;;;;;;14.98;13.18;;;;;;;31.56;51.45;101025.34;5085672;27;66310;-37
2022/01/14 08:11:01;;;;;;;15.48;13.45;;;;;;;31.56;51.63;101018.03;5087164;27;70595;-38
2022/01/14 08:13:32;;;;;;;13.93;12.38;;;;;;;31.55;51.49;101007.44;5083123;27;67037;-37
2022/01/14 08:16:02;;;;;;;19.83;13.90;;;;;;;31.61;51.45;101018.22;5085264;27;70266;-36
2022/01/14 08:18:32;;;;;;;15.20;13.10;;;;;;;31.60;51.23;101015.75;5081576;27;65497;-37
2022/01/14 08:21:04;;;;;;;17.50;13.25;;;;;;;31.50;51.24;100993.72;5079378;27;69535;-37
2022/01/14 08:23:34;;;;;;;19.60;13.63;;;;;;;31.63;51.23;101020.72;5078748;27;66135;-36
2022/01/14 08:26:05;;;;;;;15.10;12.60;;;;;;;31.64;51.40;101011.50;5067377;27;70358;-38
2022/01/14 08:28:36;;;;;;;13.85;12.55;;;;;;;31.69;51.17;101013.56;5083259;27;66681;-38
2022/01/14 08:31:06;;;;;;;14.05;12.70;;;;;;;31.72;50.96;101013.94;5080396;27;69594;-38
2022/01/14 08:33:37;;;;;;;14.38;12.90;;;;;;;31.70;50.93;101007.91;5088157;27;65336;-37
2022/01/14 08:36:07;;;;;;;18.42;12.80;;;;;;;31.75;50.73;101012.66;5091339;27;71246;-38
2022/01/14 08:38:38;;;;;;;13.77;12.45;;;;;;;31.76;50.70;101006.19;5086477;27;65470;-36
2022/01/14 08:41:08;;;;;;;13.13;12.02;;;;;;;31.78;51.02;101006.81;5084142;27;71178;-37
2022/01/14 08:43:38;;;;;;;12.38;11.25;;;;;;;31.75;50.62;100999.94;5097584;27;65686;-36
2022/01/14 08:46:08;;;;;;;14.13;12.75;;;;;;;31.80;50.79;101002.00;5088136;27;70094;-36
2022/01/14 08:48:39;;;;;;;14.50;12.32;;;;;;;31.82;50.53;101003.44;5096024;27;65611;-36
2022/01/14 08:51:09;;;;;;;14.30;12.82;;;;;;;31.85;50.32;100999.44;5088648;27;70206;-36
2022/01/14 08:53:39;;;;;;;13.43;12.20;;;;;;;31.85;50.32;100996.72;5089232;27;66151;-36
2022/01/14 08:56:09;;;;;;;13.93;11.95;;;;;;;31.86;50.33;100997.56;5089376;27;70022;-37
2022/01/14 08:58:40;;;;;;;16.90;12.25;;;;;;;31.86;50.62;100998.38;5089093;27;66392;-37
2022/01/14 09:01:10;;;;;;;12.50;11.45;;;;;;;31.88;50.85;100996.28;5085830;27;69914;-36
2022/01/14 09:03:41;;;;;;;13.70;12.32;;;;;;;31.90;50.79;100988.75;5084774;27;66381;-36
2022/01/14 09:06:11;;;;;;;13.25;12.02;;;;;;;31.59;50.20;100947.13;5091046;27;69429;-36
2022/01/14 09:08:41;;;;;;;13.30;11.00;;;;;;;31.88;50.34;100985.44;5090432;27;65826;-36
2022/01/14 09:11:11;;;;;;;14.10;12.23;;;;;;;31.78;50.29;100966.94;5088125;27;69803;-36
2022/01/14 09:13:42;;;;;;;14.30;11.15;;;;;;;31.91;50.52;100985.00;5091898;27;65519;-36
2022/01/14 09:16:13;;;;;;;13.65;10.98;;;;;;;31.92;50.28;100983.94;5087229;27;69684;-37
2022/01/14 09:18:43;;;;;;;16.07;11.57;;;;;;;31.96;50.43;100987.88;5087488;27;66741;-36
2022/01/14 09:21:15;;;;;;;13.13;11.75;;;;;;;31.79;50.28;100960.47;5089453;27;69311;-37
2022/01/14 09:23:53;;;;;;;;;;;;;;;31.78;50.66;100990.53;5090373;27;65963;-37
2022/01/14 09:26:23;;;;;;;12.00;10.85;;;;;;;31.95;50.42;100986.19;5083444;27;71979;-36
2022/01/14 09:28:54;;;;;;;15.73;11.88;;;;;;;31.98;49.94;100985.78;5092172;27;65577;-36
2022/01/14 09:31:24;;;;;;;13.70;11.65;;;;;;;32.00;50.16;100988.25;5085128;27;69756;-36
2022/01/14 09:33:55;;;;;;;11.80;10.65;;;;;;;31.99;49.90;100992.84;5095960;27;65371;-37
2022/01/14 09:36:25;;;;;;;14.68;11.07;;;;;;;31.98;50.15;100987.63;5089063;27;69841;-36
2022/01/14 09:38:58;;;;;;;13.23;11.07;;;;;;;31.84;50.01;100962.50;5083233;27;65720;-36
2022/01/14 09:41:29;;;;;;;11.75;10.75;;;;;;;31.97;50.02;100989.53;5088731;27;69748;-36
2022/01/14 09:44:00;;;;;;;12.52;11.25;;;;;;;31.89;50.02;100978.09;5097050;27;67575;-36
2022/01/14 09:46:30;;;;;;;12.10;10.17;;;;;;;32.02;50.19;100997.00;5075991;27;68404;-36
2022/01/14 09:49:01;;;;;;;15.82;10.70;;;;;;;32.03;50.44;100998.66;5086557;27;66378;-36
2022/01/14 09:51:31;;;;;;;12.05;10.93;;;;;;;32.02;50.21;101002.44;5089635;27;69497;-35
2022/01/14 09:54:04;;;;;;;12.18;10.82;;;;;;;31.98;50.53;100983.06;5084151;27;66664;-36
2022/01/14 09:56:34;;;;;;;13.20;11.10;;;;;;;32.00;50.26;100999.91;5084034;27;70123;-37
2022/01/14 09:59:07;;;;;;;11.77;10.20;;;;;;;31.98;50.49;100991.19;5083848;27;66653;-37
2022/01/14 10:01:43;;;;;;;11.60;10.63;;;;;;;32.04;50.40;101006.56;5089894;27;68786;-35
2022/01/14 10:04:19;;;;;;;12.60;10.32;;;;;;;32.03;50.17;100999.47;5066773;27;66751;-37
2022/01/14 10:06:57;;;;;;;10.50;9.70;;;;;;;32.02;50.26;101003.25;5096222;27;70578;-36
2022/01/14 10:09:33;;;;;;;12.60;10.80;;;;;;;32.03;50.18;101004.06;5093546;27;66265;-37
2022/01/14 10:12:08;;;;;;;13.95;10.35;;;;;;;31.93;50.14;100979.34;5085017;27;69986;-37
2022/01/14 10:14:43;;;;;;;11.88;10.32;;;;;;;32.03;50.51;101007.59;5085691;27;66991;-36
2022/01/14 10:17:13;;;;;;;10.60;9.65;;;;;;;32.01;50.44;101009.75;5080300;27;70232;-37
2022/01/14 10:19:45;;;;;;;12.98;10.13;;;;;;;32.01;50.36;101012.47;5080526;27;66530;-36
2022/01/14 10:22:18;;;;;;;;;;;;;;;31.78;51.05;101013.03;5086882;27;70561;-37
2022/01/14 10:25:06;;;;;;;10.88;9.88;;;;;;;31.94;50.64;101021.72;5092198;27;65979;-36
2022/01/14 10:27:39;;;;;;;10.95;9.50;;;;;;;31.85;50.40;100999.44;5073173;27;69067;-36
2022/01/14 10:30:15;;;;;;;14.05;10.23;;;;;;;31.96;50.32;101020.44;5082778;27;65417;-38
2022/01/14 10:32:53;;;;;;;11.88;10.77;;;;;;;31.96;50.31;101025.84;5089139;27;69396;-37
2022/01/14 10:35:26;;;;;;;13.65;10.25;;;;;;;31.96;50.78;101030.47;5081683;27;66712;-37
2022/01/14 10:38:00;;;;;;;11.75;10.65;;;;;;;31.84;50.36;101011.31;5083036;27;69938;-37
2022/01/14 10:40:35;;;;;;;13.23;10.45;;;;;;;31.98;50.19;101034.63;5092593;27;65908;-37
2022/01/14 10:43:08;;;;;;;12.85;10.20;;;;;;;31.77;50.34;101005.97;5086483;27;69657;-37
2022/01/14 10:45:56;;;;;;;19.80;10.32;;;;;;;31.89;50.25;101035.91;5087092;27;65336;-36
2022/01/14 10:48:35;;;;;;;11.02;10.15;;;;;;;31.96;50.36;101047.56;5095505;27;69649;-37
2022/01/14 10:51:14;;;;;;;16.45;10.90;;;;;;;31.75;50.68;101028.94;5087177;27;66211;-36
2022/01/14 10:53:52;;;;;;;15.07;10.57;;;;;;;31.94;51.80;101055.09;5096642;27;70115;-37
2022/01/14 10:56:25;;;;;;;15.57;10.32;;;;;;;31.79;51.41;101035.59;5089087;27;65390;-38
2022/01/14 10:58:58;;;;;;;17.88;11.52;;;;;;;31.95;51.88;101069.47;5091052;27;70266;-37
2022/01/14 11:01:31;;;;;;;12.52;11.18;;;;;;;31.89;52.25;101052.19;5084720;27;65907;-37
2022/01/14 11:04:11;;;;;;;14.10;11.35;;;;;;;31.97;52.45;101068.19;5089955;27;70510;-37
2022/01/14 11:06:42;;;;;;;16.83;11.18;;;;;;;31.95;52.48;101066.75;5088880;27;65704;-37
2022/01/14 11:09:18;;;;;;;28.42;12.15;;;;;;;31.87;52.85;101050.75;5088606;27;70276;-37
2022/01/14 11:11:50;;;;;;;16.42;11.38;;;;;;;31.98;52.90;101083.44;5087896;27;66437;-36
2022/01/14 11:14:20;;;;;;;15.13;12.02;;;;;;;31.96;52.82;101080.13;5088598;27;69982;-37
2022/01/14 11:16:52;;;;;;;13.73;11.52;;;;;;;31.91;52.86;101066.38;5082998;27;66504;-36
2022/01/14 11:19:24;;;;;;;31.48;12.90;;;;;;;31.98;53.45;101080.75;5084998;27;69135;-37
2022/01/14 11:24:48;;;;;;;19.88;11.55;;;;;;;31.77;53.47;101053.97;5079298;27;69264;-38
2022/01/14 11:27:20;;;;;;;33.22;12.27;;;;;;;31.95;53.44;101089.28;5090397;27;65687;-37
2022/01/14 11:29:57;;;;;;;28.42;12.82;;;;;;;31.86;53.69;101071.63;5093388;27;69707;-36
2022/01/14 11:32:28;;;;;;;16.58;12.07;;;;;;;31.95;53.77;101091.19;5087191;27;65856;-36
2022/01/14 11:35:25;;;;;;;22.67;12.40;;;;;;;31.88;54.37;101093.09;5086852;27;69608;-37
2022/01/14 11:37:56;;;;;;;22.80;12.85;;;;;;;31.92;53.91;101095.16;5096613;27;66458;-38
2022/01/14 11:40:27;;;;;;;23.70;13.20;;;;;;;31.88;54.04;101096.66;5086098;27;70784;-37
2022/01/14 11:43:02;;;;;;;20.52;13.20;;;;;;;31.89;53.77;101106.44;5091237;27;66618;-36
2022/01/14 11:45:48;;;;;;;24.25;13.18;;;;;;;31.88;54.10;101098.53;5086084;27;70635;-37
2022/01/14 11:48:33;;;;;;;27.30;13.85;;;;;;;31.87;54.02;101113.97;5083187;27;65981;-35
2022/01/14 11:51:08;;;;;;;23.83;13.52;;;;;;;31.89;54.12;101116.47;5090529;27;69667;-36
2022/01/14 11:53:42;;;;;;;24.63;13.82;;;;;;;31.66;53.71;101079.09;5087048;27;65896;-37
2022/01/14 11:56:34;;;;;;;20.25;13.70;;;;;;;31.80;54.32;101121.34;5084871;27;70250;-37
2022/01/14 11:59:22;;;;;;;17.55;12.38;;;;;;;31.79;54.48;101122.41;5068723;27;65872;-37
2022/01/14 12:01:55;;;;;;;15.45;12.90;;;;;;;31.53;53.70;101080.84;5081636;27;69796;-36
2022/01/14 12:05:03;;;;;;;22.20;13.75;;;;;;;31.75;54.43;101118.44;5086148;27;65460;-37